sensor_id;sensor_type;location;lat;lon;timestamp;temperature;humidity
33414;DHT22;60055;41.884;12.534;2022-10-16T00:01:35;18.50;99.90
33414;DHT22;60055;41.884;12.534;2022-10-16T00:04:02;18.40;99.90
33414;DHT22;60055;41.884;12.534;2022-10-16T00:06:28;18.40;99.90
33414;DHT22;60055;41.884;12.534;2022-10-16T00:08:54;18.30;99.90
33414;DHT22;60055;41.884;12.534;2022-10-16T00:11:26;18.30;99.90
33414;DHT22;60055;41.884;12.534;2022-10-16T00:13:55;18.40;99.90
33414;DHT22;60055;41.884;12.534;2022-10-16T00:16:21;18.20;99.90
33414;DHT22;60055;41.884;12.534;2022-10-16T00:18:47;18.20;99.90
33414;DHT22;60055;41.884;12.534;2022-10-16T00:21:15;18.10;99.90
33414;DHT22;60055;41.884;12.534;2022-10-16T00:23:42;18.10;99.90
33414;DHT22;60055;41.884;12.534;2022-10-16T00:26:13;18.20;99.90
33414;DHT22;60055;41.884;12.534;2022-10-16T00:28:40;18.10;99.90
33414;DHT22;60055;41.884;12.534;2022-10-16T00:31:08;18.00;99.90
33414;DHT22;60055;41.884;12.534;2022-10-16T00:33:34;18.00;99.90
33414;DHT22;60055;41.884;12.534;2022-10-16T00:36:02;17.90;99.90
33414;DHT22;60055;41.884;12.534;2022-10-16T00:38:28;17.80;99.90
33414;DHT22;60055;41.884;12.534;2022-10-16T00:40:54;17.80;99.90
33414;DHT22;60055;41.884;12.534;2022-10-16T00:43:44;17.90;99.90
33414;DHT22;60055;41.884;12.534;2022-10-16T00:46:23;17.90;99.90
33414;DHT22;60055;41.884;12.534;2022-10-16T00:51:28;17.80;99.90
33414;DHT22;60055;41.884;12.534;2022-10-16T00:53:56;17.80;99.90
33414;DHT22;60055;41.884;12.534;2022-10-16T00:56:22;17.70;99.90
33414;DHT22;60055;41.884;12.534;2022-10-16T00:58:47;17.70;99.90
33414;DHT22;60055;41.884;12.534;2022-10-16T01:01:13;17.70;99.90
33414;DHT22;60055;41.884;12.534;2022-10-16T01:03:39;17.70;99.90
33414;DHT22;60055;41.884;12.534;2022-10-16T01:14:59;17.80;99.90
33414;DHT22;60055;41.884;12.534;2022-10-16T01:17:49;17.60;99.90
33414;DHT22;60055;41.884;12.534;2022-10-16T01:20:26;17.60;99.90
33414;DHT22;60055;41.884;12.534;2022-10-16T01:23:10;17.70;99.90
33414;DHT22;60055;41.884;12.534;2022-10-16T01:28:21;17.70;99.90
33414;DHT22;60055;41.884;12.534;2022-10-16T01:30:51;17.80;99.90
33414;DHT22;60055;41.884;12.534;2022-10-16T01:33:27;17.80;99.90
33414;DHT22;60055;41.884;12.534;2022-10-16T01:36:24;17.70;99.90
33414;DHT22;60055;41.884;12.534;2022-10-16T01:38:56;17.80;99.90
33414;DHT22;60055;41.884;12.534;2022-10-16T01:41:37;17.80;99.90
33414;DHT22;60055;41.884;12.534;2022-10-16T01:44:11;17.80;99.90
33414;DHT22;60055;41.884;12.534;2022-10-16T01:46:41;17.70;99.90
33414;DHT22;60055;41.884;12.534;2022-10-16T01:49:09;17.80;99.90
33414;DHT22;60055;41.884;12.534;2022-10-16T01:51:39;17.70;99.90
33414;DHT22;60055;41.884;12.534;2022-10-16T01:54:08;17.70;99.90
33414;DHT22;60055;41.884;12.534;2022-10-16T01:56:49;17.60;99.90
33414;DHT22;60055;41.884;12.534;2022-10-16T01:59:19;17.60;99.90
33414;DHT22;60055;41.884;12.534;2022-10-16T02:01:51;17.60;99.90
33414;DHT22;60055;41.884;12.534;2022-10-16T02:04:46;17.60;99.90
33414;DHT22;60055;41.884;12.534;2022-10-16T02:07:19;17.70;99.90
33414;DHT22;60055;41.884;12.534;2022-10-16T02:09:46;17.70;99.90
33414;DHT22;60055;41.884;12.534;2022-10-16T02:12:28;17.60;99.90
33414;DHT22;60055;41.884;12.534;2022-10-16T02:14:55;17.50;99.90
33414;DHT22;60055;41.884;12.534;2022-10-16T02:17:21;17.60;99.90
33414;DHT22;60055;41.884;12.534;2022-10-16T02:19:49;17.60;99.90
33414;DHT22;60055;41.884;12.534;2022-10-16T02:22:40;17.50;99.90
33414;DHT22;60055;41.884;12.534;2022-10-16T02:25:31;17.50;99.90
33414;DHT22;60055;41.884;12.534;2022-10-16T02:28:19;17.50;99.90
33414;DHT22;60055;41.884;12.534;2022-10-16T02:30:59;17.50;99.90
33414;DHT22;60055;41.884;12.534;2022-10-16T02:33:28;17.60;99.90
33414;DHT22;60055;41.884;12.534;2022-10-16T02:35:55;17.60;99.90
33414;DHT22;60055;41.884;12.534;2022-10-16T02:38:25;17.50;99.90
33414;DHT22;60055;41.884;12.534;2022-10-16T02:40:51;17.50;99.90
33414;DHT22;60055;41.884;12.534;2022-10-16T02:43:19;17.50;99.90
33414;DHT22;60055;41.884;12.534;2022-10-16T02:45:56;17.50;99.90
33414;DHT22;60055;41.884;12.534;2022-10-16T02:48:23;17.40;99.90
33414;DHT22;60055;41.884;12.534;2022-10-16T02:50:52;17.40;99.90
33414;DHT22;60055;41.884;12.534;2022-10-16T02:53:22;17.40;99.90
33414;DHT22;60055;41.884;12.534;2022-10-16T02:55:53;17.30;99.90
33414;DHT22;60055;41.884;12.534;2022-10-16T02:58:20;17.30;99.90
33414;DHT22;60055;41.884;12.534;2022-10-16T03:00:54;17.30;99.90
33414;DHT22;60055;41.884;12.534;2022-10-16T03:03:25;17.30;99.90
33414;DHT22;60055;41.884;12.534;2022-10-16T03:05:53;17.30;99.90
33414;DHT22;60055;41.884;12.534;2022-10-16T03:08:28;17.40;99.90
33414;DHT22;60055;41.884;12.534;2022-10-16T03:11:04;17.30;99.90
33414;DHT22;60055;41.884;12.534;2022-10-16T03:13:36;17.20;99.90
33414;DHT22;60055;41.884;12.534;2022-10-16T03:16:02;17.10;99.90
33414;DHT22;60055;41.884;12.534;2022-10-16T03:18:28;17.20;99.90
33414;DHT22;60055;41.884;12.534;2022-10-16T03:20:56;17.20;99.90
33414;DHT22;60055;41.884;12.534;2022-10-16T03:23:22;17.20;99.90
33414;DHT22;60055;41.884;12.534;2022-10-16T03:25:48;17.20;99.90
33414;DHT22;60055;41.884;12.534;2022-10-16T03:28:19;17.30;99.90
33414;DHT22;60055;41.884;12.534;2022-10-16T03:34:16;17.30;99.90
33414;DHT22;60055;41.884;12.534;2022-10-16T03:36:37;17.20;99.90
33414;DHT22;60055;41.884;12.534;2022-10-16T03:39:11;17.10;99.90
33414;DHT22;60055;41.884;12.534;2022-10-16T03:41:37;17.10;99.90
33414;DHT22;60055;41.884;12.534;2022-10-16T03:44:08;17.00;99.90
33414;DHT22;60055;41.884;12.534;2022-10-16T03:46:34;17.20;99.90
33414;DHT22;60055;41.884;12.534;2022-10-16T03:49:10;17.20;99.90
33414;DHT22;60055;41.884;12.534;2022-10-16T03:51:38;17.10;99.90
33414;DHT22;60055;41.884;12.534;2022-10-16T03:54:04;17.10;99.90
33414;DHT22;60055;41.884;12.534;2022-10-16T03:56:30;17.00;99.90
33414;DHT22;60055;41.884;12.534;2022-10-16T03:58:59;17.00;99.90
33414;DHT22;60055;41.884;12.534;2022-10-16T04:01:25;16.90;99.90
33414;DHT22;60055;41.884;12.534;2022-10-16T04:03:52;17.00;99.90
33414;DHT22;60055;41.884;12.534;2022-10-16T04:06:18;17.00;99.90
33414;DHT22;60055;41.884;12.534;2022-10-16T04:08:48;16.90;99.90
33414;DHT22;60055;41.884;12.534;2022-10-16T04:11:16;16.90;99.90
33414;DHT22;60055;41.884;12.534;2022-10-16T04:13:42;16.90;99.90
33414;DHT22;60055;41.884;12.534;2022-10-16T04:16:19;16.80;99.90
33414;DHT22;60055;41.884;12.534;2022-10-16T04:19:18;16.90;99.90
33414;DHT22;60055;41.884;12.534;2022-10-16T04:21:47;16.80;99.90
33414;DHT22;60055;41.884;12.534;2022-10-16T04:24:18;16.70;99.90
33414;DHT22;60055;41.884;12.534;2022-10-16T04:26:48;16.80;99.90
33414;DHT22;60055;41.884;12.534;2022-10-16T04:29:14;16.90;99.90
33414;DHT22;60055;41.884;12.534;2022-10-16T04:31:50;16.90;99.90
33414;DHT22;60055;41.884;12.534;2022-10-16T04:34:22;16.80;99.90
33414;DHT22;60055;41.884;12.534;2022-10-16T04:36:51;16.90;99.90
33414;DHT22;60055;41.884;12.534;2022-10-16T04:39:21;17.00;99.90
33414;DHT22;60055;41.884;12.534;2022-10-16T04:41:46;16.80;99.90
33414;DHT22;60055;41.884;12.534;2022-10-16T04:44:15;16.80;99.90
33414;DHT22;60055;41.884;12.534;2022-10-16T04:46:42;16.70;99.90
33414;DHT22;60055;41.884;12.534;2022-10-16T04:49:12;16.60;99.90
33414;DHT22;60055;41.884;12.534;2022-10-16T04:51:38;16.70;99.90
33414;DHT22;60055;41.884;12.534;2022-10-16T04:54:06;16.80;99.90
33414;DHT22;60055;41.884;12.534;2022-10-16T04:56:33;16.90;99.90
33414;DHT22;60055;41.884;12.534;2022-10-16T04:59:05;16.90;99.90
33414;DHT22;60055;41.884;12.534;2022-10-16T05:01:32;16.80;99.90
33414;DHT22;60055;41.884;12.534;2022-10-16T05:04:02;16.90;99.90
33414;DHT22;60055;41.884;12.534;2022-10-16T05:06:33;16.80;99.90
33414;DHT22;60055;41.884;12.534;2022-10-16T05:09:05;16.80;99.90
33414;DHT22;60055;41.884;12.534;2022-10-16T05:11:31;16.80;99.90
33414;DHT22;60055;41.884;12.534;2022-10-16T05:13:57;16.80;99.90
33414;DHT22;60055;41.884;12.534;2022-10-16T05:16:23;16.90;99.90
33414;DHT22;60055;41.884;12.534;2022-10-16T05:18:50;16.80;99.90
33414;DHT22;60055;41.884;12.534;2022-10-16T05:21:16;16.80;99.90
33414;DHT22;60055;41.884;12.534;2022-10-16T05:23:50;16.70;99.90
33414;DHT22;60055;41.884;12.534;2022-10-16T05:26:16;16.80;99.90
33414;DHT22;60055;41.884;12.534;2022-10-16T05:28:47;16.80;99.90
33414;DHT22;60055;41.884;12.534;2022-10-16T05:31:13;16.80;99.90
33414;DHT22;60055;41.884;12.534;2022-10-16T05:33:41;16.70;99.90
33414;DHT22;60055;41.884;12.534;2022-10-16T05:36:11;16.80;99.90
33414;DHT22;60055;41.884;12.534;2022-10-16T05:38:38;16.70;99.90
33414;DHT22;60055;41.884;12.534;2022-10-16T05:41:04;16.80;99.90
33414;DHT22;60055;41.884;12.534;2022-10-16T05:43:31;16.90;99.90
33414;DHT22;60055;41.884;12.534;2022-10-16T05:46:09;16.80;99.90
33414;DHT22;60055;41.884;12.534;2022-10-16T05:48:44;16.90;99.90
33414;DHT22;60055;41.884;12.534;2022-10-16T05:51:14;17.10;99.90
33414;DHT22;60055;41.884;12.534;2022-10-16T05:53:46;17.10;99.90
33414;DHT22;60055;41.884;12.534;2022-10-16T05:56:31;17.00;99.90
33414;DHT22;60055;41.884;12.534;2022-10-16T05:59:03;17.10;99.90
33414;DHT22;60055;41.884;12.534;2022-10-16T06:01:29;17.00;99.90
33414;DHT22;60055;41.884;12.534;2022-10-16T06:04:17;17.00;99.90
33414;DHT22;60055;41.884;12.534;2022-10-16T06:06:45;17.00;99.90
33414;DHT22;60055;41.884;12.534;2022-10-16T06:09:11;17.10;99.90
33414;DHT22;60055;41.884;12.534;2022-10-16T06:11:37;17.10;99.90
33414;DHT22;60055;41.884;12.534;2022-10-16T06:14:04;17.20;99.90
33414;DHT22;60055;41.884;12.534;2022-10-16T06:16:42;17.10;99.90
33414;DHT22;60055;41.884;12.534;2022-10-16T06:19:09;17.00;99.90
33414;DHT22;60055;41.884;12.534;2022-10-16T06:21:37;17.00;99.90
33414;DHT22;60055;41.884;12.534;2022-10-16T06:24:06;16.90;99.90
33414;DHT22;60055;41.884;12.534;2022-10-16T06:26:32;16.80;99.90
33414;DHT22;60055;41.884;12.534;2022-10-16T06:29:00;16.80;99.90
33414;DHT22;60055;41.884;12.534;2022-10-16T06:31:28;16.90;99.90
33414;DHT22;60055;41.884;12.534;2022-10-16T06:33:57;17.00;99.90
33414;DHT22;60055;41.884;12.534;2022-10-16T06:36:43;17.20;99.90
33414;DHT22;60055;41.884;12.534;2022-10-16T06:39:09;17.30;99.90
33414;DHT22;60055;41.884;12.534;2022-10-16T06:41:35;17.20;99.90
33414;DHT22;60055;41.884;12.534;2022-10-16T06:46:53;17.40;99.90
33414;DHT22;60055;41.884;12.534;2022-10-16T06:49:32;17.50;99.90
33414;DHT22;60055;41.884;12.534;2022-10-16T06:52:15;17.80;99.90
33414;DHT22;60055;41.884;12.534;2022-10-16T06:54:42;17.90;99.90
33414;DHT22;60055;41.884;12.534;2022-10-16T06:57:11;17.90;99.90
33414;DHT22;60055;41.884;12.534;2022-10-16T06:59:39;17.90;99.90
33414;DHT22;60055;41.884;12.534;2022-10-16T07:02:11;18.00;99.90
33414;DHT22;60055;41.884;12.534;2022-10-16T07:04:42;18.50;99.90
33414;DHT22;60055;41.884;12.534;2022-10-16T07:07:14;18.70;99.90
33414;DHT22;60055;41.884;12.534;2022-10-16T07:09:47;18.90;99.90
33414;DHT22;60055;41.884;12.534;2022-10-16T07:12:19;19.00;99.90
33414;DHT22;60055;41.884;12.534;2022-10-16T07:14:50;19.10;99.90
33414;DHT22;60055;41.884;12.534;2022-10-16T07:17:20;19.20;99.90
33414;DHT22;60055;41.884;12.534;2022-10-16T07:19:46;19.40;99.90
33414;DHT22;60055;41.884;12.534;2022-10-16T07:24:59;19.40;99.90
33414;DHT22;60055;41.884;12.534;2022-10-16T07:27:53;19.80;99.90
33414;DHT22;60055;41.884;12.534;2022-10-16T07:30:46;19.90;99.90
33414;DHT22;60055;41.884;12.534;2022-10-16T07:33:18;20.10;99.90
33414;DHT22;60055;41.884;12.534;2022-10-16T07:35:53;20.20;99.90
33414;DHT22;60055;41.884;12.534;2022-10-16T07:38:21;20.60;99.90
33414;DHT22;60055;41.884;12.534;2022-10-16T07:41:09;20.60;99.90
33414;DHT22;60055;41.884;12.534;2022-10-16T07:43:44;20.60;99.90
33414;DHT22;60055;41.884;12.534;2022-10-16T07:46:13;20.30;99.90
33414;DHT22;60055;41.884;12.534;2022-10-16T07:51:47;20.60;99.90
33414;DHT22;60055;41.884;12.534;2022-10-16T07:54:16;21.00;99.90
33414;DHT22;60055;41.884;12.534;2022-10-16T07:56:45;21.20;99.90
33414;DHT22;60055;41.884;12.534;2022-10-16T07:59:30;21.20;99.90
33414;DHT22;60055;41.884;12.534;2022-10-16T08:05:22;21.40;99.90
33414;DHT22;60055;41.884;12.534;2022-10-16T08:08:11;21.60;99.90
33414;DHT22;60055;41.884;12.534;2022-10-16T08:10:53;21.70;99.90
33414;DHT22;60055;41.884;12.534;2022-10-16T08:13:35;21.80;99.90
33414;DHT22;60055;41.884;12.534;2022-10-16T08:16:16;21.50;99.90
33414;DHT22;60055;41.884;12.534;2022-10-16T08:19:05;21.50;99.90
33414;DHT22;60055;41.884;12.534;2022-10-16T08:21:34;21.80;99.90
33414;DHT22;60055;41.884;12.534;2022-10-16T08:24:26;21.70;99.90
33414;DHT22;60055;41.884;12.534;2022-10-16T08:26:53;21.90;99.90
33414;DHT22;60055;41.884;12.534;2022-10-16T08:29:27;21.90;99.90
33414;DHT22;60055;41.884;12.534;2022-10-16T08:31:57;22.20;99.90
33414;DHT22;60055;41.884;12.534;2022-10-16T08:34:28;22.30;99.90
33414;DHT22;60055;41.884;12.534;2022-10-16T08:37:01;22.50;99.90
33414;DHT22;60055;41.884;12.534;2022-10-16T08:39:41;22.50;99.90
33414;DHT22;60055;41.884;12.534;2022-10-16T08:51:08;22.50;99.90
33414;DHT22;60055;41.884;12.534;2022-10-16T08:57:26;22.60;99.90
33414;DHT22;60055;41.884;12.534;2022-10-16T09:00:26;22.50;99.90
33414;DHT22;60055;41.884;12.534;2022-10-16T09:13:02;22.80;99.90
33414;DHT22;60055;41.884;12.534;2022-10-16T09:19:16;22.40;99.90
33414;DHT22;60055;41.884;12.534;2022-10-16T09:21:44;22.20;99.90
33414;DHT22;60055;41.884;12.534;2022-10-16T09:24:22;22.30;99.90
33414;DHT22;60055;41.884;12.534;2022-10-16T09:26:52;22.20;99.90
33414;DHT22;60055;41.884;12.534;2022-10-16T09:29:31;22.50;99.90
33414;DHT22;60055;41.884;12.534;2022-10-16T09:32:17;22.60;99.90
33414;DHT22;60055;41.884;12.534;2022-10-16T09:35:53;22.80;99.90
33414;DHT22;60055;41.884;12.534;2022-10-16T09:39:02;22.90;99.90
33414;DHT22;60055;41.884;12.534;2022-10-16T09:41:42;23.00;99.90
33414;DHT22;60055;41.884;12.534;2022-10-16T09:44:31;23.20;99.90
33414;DHT22;60055;41.884;12.534;2022-10-16T09:47:04;22.90;99.90
33414;DHT22;60055;41.884;12.534;2022-10-16T09:53:19;22.80;99.90
33414;DHT22;60055;41.884;12.534;2022-10-16T09:56:01;22.90;99.90
33414;DHT22;60055;41.884;12.534;2022-10-16T09:58:52;22.90;99.90
33414;DHT22;60055;41.884;12.534;2022-10-16T10:07:59;23.30;99.90
33414;DHT22;60055;41.884;12.534;2022-10-16T10:10:32;23.20;99.90
33414;DHT22;60055;41.884;12.534;2022-10-16T10:13:39;23.10;99.90
33414;DHT22;60055;41.884;12.534;2022-10-16T10:19:57;23.20;99.90
33414;DHT22;60055;41.884;12.534;2022-10-16T10:22:40;23.10;99.90
33414;DHT22;60055;41.884;12.534;2022-10-16T10:31:39;23.30;99.90
33414;DHT22;60055;41.884;12.534;2022-10-16T11:01:16;23.30;99.90
33414;DHT22;60055;41.884;12.534;2022-10-16T11:03:13;23.30;99.90
33414;DHT22;60055;41.884;12.534;2022-10-16T11:05:50;23.30;99.90
33414;DHT22;60055;41.884;12.534;2022-10-16T11:08:47;23.30;99.90
33414;DHT22;60055;41.884;12.534;2022-10-16T11:11:38;23.30;99.90
33414;DHT22;60055;41.884;12.534;2022-10-16T11:17:40;23.40;99.90
33414;DHT22;60055;41.884;12.534;2022-10-16T11:26:02;23.60;99.90
33414;DHT22;60055;41.884;12.534;2022-10-16T11:28:43;23.70;99.90
33414;DHT22;60055;41.884;12.534;2022-10-16T11:34:17;23.60;99.90
33414;DHT22;60055;41.884;12.534;2022-10-16T11:37:32;23.60;99.90
33414;DHT22;60055;41.884;12.534;2022-10-16T11:40:37;23.60;99.90
33414;DHT22;60055;41.884;12.534;2022-10-16T11:43:25;23.50;99.90
33414;DHT22;60055;41.884;12.534;2022-10-16T11:45:55;23.70;99.90
33414;DHT22;60055;41.884;12.534;2022-10-16T11:48:54;23.70;99.90
33414;DHT22;60055;41.884;12.534;2022-10-16T11:57:39;24.00;99.90
33414;DHT22;60055;41.884;12.534;2022-10-16T12:07:04;24.30;99.90
33414;DHT22;60055;41.884;12.534;2022-10-16T12:10:09;24.40;99.90
33414;DHT22;60055;41.884;12.534;2022-10-16T12:23:19;24.50;99.90
33414;DHT22;60055;41.884;12.534;2022-10-16T12:32:18;24.50;99.90
33414;DHT22;60055;41.884;12.534;2022-10-16T12:35:16;24.60;99.90
33414;DHT22;60055;41.884;12.534;2022-10-16T12:37:42;24.70;99.90
33414;DHT22;60055;41.884;12.534;2022-10-16T12:40:28;24.80;99.90
33414;DHT22;60055;41.884;12.534;2022-10-16T12:46:39;24.90;99.90
33414;DHT22;60055;41.884;12.534;2022-10-16T12:52:35;24.90;99.90
33414;DHT22;60055;41.884;12.534;2022-10-16T12:55:31;24.80;99.90
33414;DHT22;60055;41.884;12.534;2022-10-16T13:26:47;24.40;99.90
33414;DHT22;60055;41.884;12.534;2022-10-16T13:29:15;24.50;99.90
33414;DHT22;60055;41.884;12.534;2022-10-16T13:31:43;24.50;99.90
33414;DHT22;60055;41.884;12.534;2022-10-16T13:34:20;24.50;99.90
33414;DHT22;60055;41.884;12.534;2022-10-16T13:36:54;24.40;99.90
33414;DHT22;60055;41.884;12.534;2022-10-16T13:42:28;24.20;99.90
33414;DHT22;60055;41.884;12.534;2022-10-16T13:44:59;24.20;99.90
33414;DHT22;60055;41.884;12.534;2022-10-16T13:47:35;24.20;99.90
33414;DHT22;60055;41.884;12.534;2022-10-16T13:50:12;24.30;99.90
33414;DHT22;60055;41.884;12.534;2022-10-16T13:52:39;24.50;99.90
33414;DHT22;60055;41.884;12.534;2022-10-16T13:55:17;24.50;99.90
33414;DHT22;60055;41.884;12.534;2022-10-16T13:57:45;24.40;99.90
33414;DHT22;60055;41.884;12.534;2022-10-16T14:00:26;24.40;99.90
33414;DHT22;60055;41.884;12.534;2022-10-16T14:03:18;24.40;99.90
33414;DHT22;60055;41.884;12.534;2022-10-16T14:05:51;24.30;99.90
33414;DHT22;60055;41.884;12.534;2022-10-16T14:08:21;24.30;99.90
33414;DHT22;60055;41.884;12.534;2022-10-16T14:13:48;24.30;99.90
33414;DHT22;60055;41.884;12.534;2022-10-16T14:16:21;24.30;99.90
33414;DHT22;60055;41.884;12.534;2022-10-16T14:19:03;24.20;99.90
33414;DHT22;60055;41.884;12.534;2022-10-16T14:21:33;24.10;99.90
33414;DHT22;60055;41.884;12.534;2022-10-16T14:23:59;24.00;99.90
33414;DHT22;60055;41.884;12.534;2022-10-16T14:26:46;24.10;99.90
33414;DHT22;60055;41.884;12.534;2022-10-16T14:29:15;24.00;99.90
33414;DHT22;60055;41.884;12.534;2022-10-16T14:32:04;23.90;99.90
33414;DHT22;60055;41.884;12.534;2022-10-16T14:34:37;24.00;99.90
33414;DHT22;60055;41.884;12.534;2022-10-16T14:37:16;24.00;99.90
33414;DHT22;60055;41.884;12.534;2022-10-16T14:39:49;23.90;99.90
33414;DHT22;60055;41.884;12.534;2022-10-16T14:42:18;23.80;99.90
33414;DHT22;60055;41.884;12.534;2022-10-16T14:44:46;23.80;99.90
33414;DHT22;60055;41.884;12.534;2022-10-16T14:47:22;23.80;99.90
33414;DHT22;60055;41.884;12.534;2022-10-16T14:49:53;23.80;99.90
33414;DHT22;60055;41.884;12.534;2022-10-16T14:52:24;23.80;99.90
33414;DHT22;60055;41.884;12.534;2022-10-16T14:54:53;23.70;99.90
33414;DHT22;60055;41.884;12.534;2022-10-16T14:57:28;23.70;99.90
33414;DHT22;60055;41.884;12.534;2022-10-16T14:59:56;23.80;99.90
33414;DHT22;60055;41.884;12.534;2022-10-16T15:02:35;23.70;99.90
33414;DHT22;60055;41.884;12.534;2022-10-16T15:05:19;23.60;99.90
33414;DHT22;60055;41.884;12.534;2022-10-16T15:07:47;23.60;99.90
33414;DHT22;60055;41.884;12.534;2022-10-16T15:10:15;23.60;99.90
33414;DHT22;60055;41.884;12.534;2022-10-16T15:12:41;23.70;99.90
33414;DHT22;60055;41.884;12.534;2022-10-16T15:17:55;23.50;99.90
33414;DHT22;60055;41.884;12.534;2022-10-16T15:20:30;23.40;99.90
33414;DHT22;60055;41.884;12.534;2022-10-16T15:23:05;23.40;99.90
33414;DHT22;60055;41.884;12.534;2022-10-16T15:25:43;23.30;99.90
33414;DHT22;60055;41.884;12.534;2022-10-16T15:28:15;23.30;99.90
33414;DHT22;60055;41.884;12.534;2022-10-16T15:30:42;23.30;99.90
33414;DHT22;60055;41.884;12.534;2022-10-16T15:33:14;23.30;99.90
33414;DHT22;60055;41.884;12.534;2022-10-16T15:35:40;23.30;99.90
33414;DHT22;60055;41.884;12.534;2022-10-16T15:38:06;23.30;99.90
33414;DHT22;60055;41.884;12.534;2022-10-16T15:40:32;23.20;99.90
33414;DHT22;60055;41.884;12.534;2022-10-16T15:42:58;23.20;99.90
33414;DHT22;60055;41.884;12.534;2022-10-16T15:45:23;23.20;99.90
33414;DHT22;60055;41.884;12.534;2022-10-16T15:47:49;23.20;99.90
33414;DHT22;60055;41.884;12.534;2022-10-16T15:50:15;23.10;99.90
33414;DHT22;60055;41.884;12.534;2022-10-16T15:52:43;23.10;99.90
33414;DHT22;60055;41.884;12.534;2022-10-16T15:55:12;23.00;99.90
33414;DHT22;60055;41.884;12.534;2022-10-16T15:57:41;22.90;99.90
33414;DHT22;60055;41.884;12.534;2022-10-16T16:00:14;22.90;99.90
33414;DHT22;60055;41.884;12.534;2022-10-16T16:02:42;22.90;99.90
33414;DHT22;60055;41.884;12.534;2022-10-16T16:05:12;22.80;99.90
33414;DHT22;60055;41.884;12.534;2022-10-16T16:07:39;22.80;99.90
33414;DHT22;60055;41.884;12.534;2022-10-16T16:10:09;22.70;99.90
33414;DHT22;60055;41.884;12.534;2022-10-16T16:12:36;22.70;99.90
33414;DHT22;60055;41.884;12.534;2022-10-16T16:15:06;22.60;99.90
33414;DHT22;60055;41.884;12.534;2022-10-16T16:17:36;22.60;99.90
33414;DHT22;60055;41.884;12.534;2022-10-16T16:20:04;22.60;99.90
33414;DHT22;60055;41.884;12.534;2022-10-16T16:22:33;22.50;99.90
33414;DHT22;60055;41.884;12.534;2022-10-16T16:24:59;22.40;99.90
33414;DHT22;60055;41.884;12.534;2022-10-16T16:27:25;22.30;99.90
33414;DHT22;60055;41.884;12.534;2022-10-16T16:29:50;22.30;99.90
33414;DHT22;60055;41.884;12.534;2022-10-16T16:32:22;22.30;99.90
33414;DHT22;60055;41.884;12.534;2022-10-16T16:34:51;22.30;99.90
33414;DHT22;60055;41.884;12.534;2022-10-16T16:37:16;22.20;99.90
33414;DHT22;60055;41.884;12.534;2022-10-16T16:39:42;22.10;99.90
33414;DHT22;60055;41.884;12.534;2022-10-16T16:42:08;22.20;99.90
33414;DHT22;60055;41.884;12.534;2022-10-16T16:44:36;22.10;99.90
33414;DHT22;60055;41.884;12.534;2022-10-16T16:47:02;22.10;99.90
33414;DHT22;60055;41.884;12.534;2022-10-16T16:49:28;22.10;99.90
33414;DHT22;60055;41.884;12.534;2022-10-16T16:51:54;22.10;99.90
33414;DHT22;60055;41.884;12.534;2022-10-16T16:54:20;22.10;99.90
33414;DHT22;60055;41.884;12.534;2022-10-16T16:56:45;21.90;99.90
33414;DHT22;60055;41.884;12.534;2022-10-16T16:59:15;21.90;99.90
33414;DHT22;60055;41.884;12.534;2022-10-16T17:01:44;21.90;99.90
33414;DHT22;60055;41.884;12.534;2022-10-16T17:04:14;21.90;99.90
33414;DHT22;60055;41.884;12.534;2022-10-16T17:06:44;21.80;99.90
33414;DHT22;60055;41.884;12.534;2022-10-16T17:09:10;21.80;99.90
33414;DHT22;60055;41.884;12.534;2022-10-16T17:11:38;21.80;99.90
33414;DHT22;60055;41.884;12.534;2022-10-16T17:14:07;21.80;99.90
33414;DHT22;60055;41.884;12.534;2022-10-16T17:16:34;21.80;99.90
33414;DHT22;60055;41.884;12.534;2022-10-16T17:19:05;21.80;99.90
33414;DHT22;60055;41.884;12.534;2022-10-16T17:21:32;21.70;99.90
33414;DHT22;60055;41.884;12.534;2022-10-16T17:23:58;21.70;99.90
33414;DHT22;60055;41.884;12.534;2022-10-16T17:26:24;21.70;99.90
33414;DHT22;60055;41.884;12.534;2022-10-16T17:28:54;21.70;99.90
33414;DHT22;60055;41.884;12.534;2022-10-16T17:31:23;21.80;99.90
33414;DHT22;60055;41.884;12.534;2022-10-16T17:33:49;21.70;99.90
33414;DHT22;60055;41.884;12.534;2022-10-16T17:36:16;21.70;99.90
33414;DHT22;60055;41.884;12.534;2022-10-16T17:38:43;21.70;99.90
33414;DHT22;60055;41.884;12.534;2022-10-16T17:41:22;21.80;99.90
33414;DHT22;60055;41.884;12.534;2022-10-16T17:57:13;21.90;99.90
33414;DHT22;60055;41.884;12.534;2022-10-16T17:59:39;22.30;99.90
33414;DHT22;60055;41.884;12.534;2022-10-16T18:02:05;22.10;99.90
33414;DHT22;60055;41.884;12.534;2022-10-16T18:04:31;22.10;99.90
33414;DHT22;60055;41.884;12.534;2022-10-16T18:06:57;22.00;99.90
33414;DHT22;60055;41.884;12.534;2022-10-16T18:09:24;21.80;99.90
33414;DHT22;60055;41.884;12.534;2022-10-16T18:11:50;21.90;99.90
33414;DHT22;60055;41.884;12.534;2022-10-16T18:14:23;22.00;99.90
33414;DHT22;60055;41.884;12.534;2022-10-16T18:16:49;22.20;99.90
33414;DHT22;60055;41.884;12.534;2022-10-16T18:19:19;22.20;99.90
33414;DHT22;60055;41.884;12.534;2022-10-16T18:21:45;22.20;99.90
33414;DHT22;60055;41.884;12.534;2022-10-16T18:24:11;22.30;99.90
33414;DHT22;60055;41.884;12.534;2022-10-16T18:26:37;22.30;99.90
33414;DHT22;60055;41.884;12.534;2022-10-16T18:29:03;22.20;99.90
33414;DHT22;60055;41.884;12.534;2022-10-16T18:31:29;22.20;99.90
33414;DHT22;60055;41.884;12.534;2022-10-16T18:33:55;22.20;99.90
33414;DHT22;60055;41.884;12.534;2022-10-16T18:36:23;22.20;99.90
33414;DHT22;60055;41.884;12.534;2022-10-16T18:38:50;22.20;99.90
33414;DHT22;60055;41.884;12.534;2022-10-16T18:41:16;22.20;99.90
33414;DHT22;60055;41.884;12.534;2022-10-16T18:43:41;22.20;99.90
33414;DHT22;60055;41.884;12.534;2022-10-16T18:46:10;22.10;99.90
33414;DHT22;60055;41.884;12.534;2022-10-16T18:48:36;22.10;99.90
33414;DHT22;60055;41.884;12.534;2022-10-16T18:51:24;22.00;99.90
33414;DHT22;60055;41.884;12.534;2022-10-16T18:53:53;21.80;99.90
33414;DHT22;60055;41.884;12.534;2022-10-16T18:56:21;21.70;99.90
33414;DHT22;60055;41.884;12.534;2022-10-16T18:58:48;21.70;99.90
33414;DHT22;60055;41.884;12.534;2022-10-16T19:01:22;21.50;99.90
33414;DHT22;60055;41.884;12.534;2022-10-16T19:03:53;21.60;99.90
33414;DHT22;60055;41.884;12.534;2022-10-16T19:06:19;21.50;99.90
33414;DHT22;60055;41.884;12.534;2022-10-16T19:08:45;21.60;99.90
33414;DHT22;60055;41.884;12.534;2022-10-16T19:11:16;21.60;99.90